Time;durP1;ratioP1;P1;durP2;ratioP2;P2;SDS_P1;SDS_P2;PMS_P1;PMS_P2;Temp;Humidity;BMP_temperature;BMP_pressure;BME280_temperature;BME280_humidity;BME280_pressure;Samples;Min_cycle;Max_cycle;Signal;HPM_P1;HPM_P2
2022/07/27 00:00:29;;;;;;;2.13;0.70;;;14.60;99.90;;;;;;5054727;28;20112;-69
2022/07/27 00:02:55;;;;;;;2.38;0.50;;;14.60;99.90;;;;;;5057820;28;20074;-69
2022/07/27 00:05:22;;;;;;;1.15;0.50;;;14.60;99.90;;;;;;5072175;28;20641;-69
2022/07/27 00:07:48;;;;;;;2.50;0.60;;;14.70;99.90;;;;;;5059925;28;20128;-69
2022/07/27 00:10:14;;;;;;;2.70;0.60;;;14.70;99.90;;;;;;5054366;28;20132;-69
2022/07/27 00:12:39;;;;;;;1.45;0.50;;;14.70;99.90;;;;;;5063536;28;20036;-69
2022/07/27 00:15:06;;;;;;;2.75;0.68;;;14.80;99.90;;;;;;5059707;28;20037;-70
2022/07/27 00:17:31;;;;;;;2.92;0.60;;;14.80;99.90;;;;;;5069200;28;20545;-70
2022/07/27 00:19:57;;;;;;;2.80;0.75;;;14.80;99.90;;;;;;5065241;28;20048;-69
2022/07/27 00:22:23;;;;;;;3.90;0.80;;;14.80;99.90;;;;;;5053810;28;20045;-70
2022/07/27 00:24:49;;;;;;;3.13;0.70;;;14.80;99.90;;;;;;5062241;28;20044;-70
2022/07/27 00:27:15;;;;;;;2.20;0.60;;;14.80;99.90;;;;;;5064820;28;20478;-70
2022/07/27 00:29:40;;;;;;;2.75;1.33;;;14.80;99.90;;;;;;5065765;28;20522;-69
2022/07/27 00:32:06;;;;;;;2.03;0.80;;;14.80;99.90;;;;;;5059951;28;20043;-69
2022/07/27 00:34:32;;;;;;;1.83;0.80;;;14.80;99.90;;;;;;5054321;28;20375;-69
2022/07/27 00:36:57;;;;;;;2.20;0.80;;;14.70;99.90;;;;;;5070679;28;20044;-69
2022/07/27 00:39:23;;;;;;;2.70;0.90;;;14.70;99.90;;;;;;5068168;28;20045;-69
2022/07/27 00:41:49;;;;;;;1.95;0.90;;;14.70;99.90;;;;;;5059171;28;20385;-69
2022/07/27 00:44:24;;;;;;;4.63;1.23;;;14.60;99.90;;;;;;5061557;28;20062;-69
2022/07/27 00:46:50;;;;;;;4.03;1.20;;;14.60;99.90;;;;;;5065110;28;20251;-69
2022/07/27 00:49:15;;;;;;;6.47;1.15;;;14.60;99.90;;;;;;5069487;28;20075;-69
2022/07/27 00:51:41;;;;;;;2.83;1.15;;;14.50;99.90;;;;;;5056450;28;20059;-70
2022/07/27 00:54:06;;;;;;;4.63;1.10;;;14.40;99.90;;;;;;5069360;28;20040;-69
2022/07/27 00:56:32;;;;;;;2.33;1.08;;;14.40;99.90;;;;;;5070089;28;20040;-69
2022/07/27 00:58:57;;;;;;;5.85;1.48;;;14.30;99.90;;;;;;5068597;28;20052;-70
2022/07/27 01:01:23;;;;;;;3.67;1.35;;;14.30;99.90;;;;;;5057056;28;20051;-71
2022/07/27 01:03:48;;;;;;;2.58;1.00;;;14.20;99.90;;;;;;5068038;28;20050;-70
2022/07/27 01:06:15;;;;;;;5.10;1.50;;;14.10;99.90;;;;;;5067989;28;20047;-69
2022/07/27 01:08:41;;;;;;;2.90;1.00;;;14.10;99.90;;;;;;5065260;28;20069;-69
2022/07/27 01:11:07;;;;;;;4.47;1.42;;;14.10;99.90;;;;;;5053666;28;20045;-69
2022/07/27 01:13:34;;;;;;;3.67;1.15;;;14.10;99.90;;;;;;5055568;28;20053;-70
2022/07/27 01:16:02;;;;;;;3.60;1.30;;;14.10;99.90;;;;;;5051186;28;20457;-70
2022/07/27 01:18:31;;;;;;;3.25;1.52;;;14.00;99.90;;;;;;5065785;28;20036;-70
2022/07/27 01:20:58;;;;;;;3.70;1.25;;;14.00;99.90;;;;;;5085687;28;20048;-70
2022/07/27 01:23:25;;;;;;;2.45;1.45;;;14.00;99.90;;;;;;5067326;28;20045;-70
2022/07/27 01:25:50;;;;;;;4.53;1.48;;;14.00;99.90;;;;;;5052615;28;20147;-70
2022/07/27 01:28:16;;;;;;;6.50;1.95;;;13.90;99.90;;;;;;5069267;28;20124;-70
2022/07/27 01:30:42;;;;;;;5.88;2.03;;;13.90;99.90;;;;;;5070548;28;20059;-70
2022/07/27 01:33:08;;;;;;;2.30;1.50;;;13.80;99.90;;;;;;5058966;28;20059;-70
2022/07/27 01:35:36;;;;;;;5.10;1.95;;;13.70;99.90;;;;;;5056851;28;20045;-69
2022/07/27 01:38:02;;;;;;;4.82;1.88;;;13.70;99.90;;;;;;5063685;28;20090;-69
2022/07/27 01:40:28;;;;;;;4.50;1.77;;;13.60;99.90;;;;;;5070245;28;20044;-70
2022/07/27 01:42:54;;;;;;;2.95;1.60;;;13.50;99.90;;;;;;5070415;28;20075;-70
2022/07/27 01:45:20;;;;;;;2.65;1.60;;;13.40;99.90;;;;;;5069394;28;20119;-70
2022/07/27 01:47:46;;;;;;;4.32;1.83;;;13.40;99.90;;;;;;5068219;28;20082;-71
2022/07/27 01:50:11;;;;;;;5.68;1.60;;;13.40;99.90;;;;;;5069281;28;20036;-69
2022/07/27 01:52:38;;;;;;;6.53;1.92;;;13.30;99.90;;;;;;5069923;28;20035;-69
2022/07/27 01:55:09;;;;;;;5.75;1.95;;;13.20;99.90;;;;;;5057298;28;20045;-69
2022/07/27 01:57:35;;;;;;;5.77;2.10;;;13.10;99.90;;;;;;5057390;28;20040;-69
2022/07/27 02:00:02;;;;;;;4.80;1.63;;;13.10;99.90;;;;;;5072792;28;20049;-69
2022/07/27 02:02:27;;;;;;;3.10;1.60;;;13.10;99.90;;;;;;5058479;28;20073;-69
2022/07/27 02:04:53;;;;;;;5.38;1.85;;;13.10;99.90;;;;;;5054560;28;20419;-70
2022/07/27 02:07:18;;;;;;;4.28;1.88;;;13.00;99.90;;;;;;5058523;28;20048;-69
2022/07/27 02:09:44;;;;;;;6.50;2.58;;;13.10;99.90;;;;;;5064030;28;20049;-69
2022/07/27 02:14:54;;;;;;;2.95;1.80;;;13.00;99.90;;;;;;5068063;28;20044;-69
2022/07/27 02:17:20;;;;;;;4.82;1.80;;;13.00;99.90;;;;;;5059927;28;20037;-69
2022/07/27 02:19:45;;;;;;;5.78;2.00;;;13.00;99.90;;;;;;5065410;28;20120;-69
2022/07/27 02:22:11;;;;;;;3.97;1.95;;;13.00;99.90;;;;;;5070389;28;20045;-69
2022/07/27 02:24:36;;;;;;;4.07;1.90;;;13.00;99.90;;;;;;5071722;28;20048;-69
2022/07/27 02:27:03;;;;;;;4.32;2.05;;;13.00;99.90;;;;;;5054338;28;20037;-69
2022/07/27 02:29:29;;;;;;;5.22;2.13;;;13.00;99.90;;;;;;5061251;28;20032;-70
2022/07/27 02:31:55;;;;;;;4.28;2.08;;;13.00;99.90;;;;;;5071356;28;20088;-69
2022/07/27 02:34:21;;;;;;;3.50;1.85;;;13.00;99.90;;;;;;5054061;28;20513;-69
2022/07/27 02:36:47;;;;;;;5.72;2.13;;;13.00;99.90;;;;;;5063483;28;20496;-70
2022/07/27 02:39:13;;;;;;;3.97;2.00;;;12.90;99.90;;;;;;5062161;28;20120;-69
2022/07/27 02:41:39;;;;;;;3.92;1.85;;;12.80;99.90;;;;;;5061121;28;20057;-69
2022/07/27 02:44:04;;;;;;;2.88;1.85;;;12.80;99.90;;;;;;5074009;28;20052;-69
2022/07/27 02:46:30;;;;;;;3.25;1.80;;;12.70;99.90;;;;;;5061594;28;20044;-69
2022/07/27 02:48:55;;;;;;;5.38;1.98;;;12.60;99.90;;;;;;5061489;28;20048;-70
2022/07/27 02:51:21;;;;;;;4.57;2.17;;;12.60;99.90;;;;;;5057915;28;20044;-69
2022/07/27 02:53:47;;;;;;;2.63;1.73;;;;;;;;;;5073617;28;20119;-70
2022/07/27 02:56:13;;;;;;;3.22;1.83;;;12.50;99.90;;;;;;5073767;28;20129;-69
2022/07/27 02:58:39;;;;;;;2.83;1.58;;;12.40;99.90;;;;;;5067942;28;20072;-69
2022/07/27 03:01:05;;;;;;;4.53;1.80;;;12.40;99.90;;;;;;5053333;28;20041;-69
2022/07/27 03:03:30;;;;;;;4.55;1.85;;;12.30;99.90;;;;;;5055285;28;20044;-69
2022/07/27 03:05:56;;;;;;;4.65;1.80;;;12.30;99.90;;;;;;5073376;28;20474;-69
2022/07/27 03:08:21;;;;;;;5.18;1.90;;;12.20;99.90;;;;;;5071184;28;20071;-69
2022/07/27 03:10:47;;;;;;;4.10;1.80;;;12.20;99.90;;;;;;5072143;28;20089;-71
2022/07/27 03:13:13;;;;;;;2.25;1.75;;;12.20;99.90;;;;;;5061038;28;20102;-69
2022/07/27 03:15:39;;;;;;;3.80;1.70;;;12.20;99.90;;;;;;5066645;28;20041;-70
2022/07/27 03:18:04;;;;;;;3.63;1.75;;;12.20;99.90;;;;;;5053032;28;20120;-69
2022/07/27 03:20:31;;;;;;;4.43;1.75;;;12.20;99.90;;;;;;5053478;28;20106;-69
2022/07/27 03:22:56;;;;;;;2.90;1.52;;;12.20;99.90;;;;;;5053051;28;20075;-69
2022/07/27 03:25:23;;;;;;;2.72;1.42;;;12.30;99.90;;;;;;5058047;28;20444;-70
2022/07/27 03:27:48;;;;;;;3.25;1.50;;;12.30;99.90;;;;;;5067435;28;20029;-69
2022/07/27 03:30:15;;;;;;;5.70;1.73;;;12.30;99.90;;;;;;5072203;28;20351;-69
2022/07/27 03:32:41;;;;;;;2.67;1.50;;;12.30;99.90;;;;;;5053271;28;20033;-69
2022/07/27 03:35:07;;;;;;;2.83;1.70;;;12.40;99.90;;;;;;5055836;28;20040;-70
2022/07/27 03:37:33;;;;;;;4.15;1.90;;;12.40;99.90;;;;;;5055709;28;20045;-69
2022/07/27 03:39:58;;;;;;;2.22;1.40;;;12.50;99.90;;;;;;5071890;28;20039;-69
2022/07/27 03:42:24;;;;;;;3.60;1.95;;;12.50;99.90;;;;;;5071866;28;20091;-69
2022/07/27 03:44:50;;;;;;;3.45;1.90;;;12.50;99.90;;;;;;5072648;28;20092;-69
2022/07/27 03:47:17;;;;;;;2.50;1.60;;;12.50;99.90;;;;;;5072805;28;20047;-69
2022/07/27 03:49:42;;;;;;;3.15;1.75;;;12.60;99.90;;;;;;5055681;28;20059;-69
2022/07/27 03:52:08;;;;;;;3.85;1.65;;;12.60;99.90;;;;;;5060912;28;20036;-69
2022/07/27 03:54:33;;;;;;;5.05;1.60;;;12.60;99.90;;;;;;5053921;28;20479;-69
2022/07/27 03:57:00;;;;;;;2.67;1.30;;;12.60;99.90;;;;;;5069937;28;20482;-69
2022/07/27 03:59:26;;;;;;;3.35;1.77;;;12.60;99.90;;;;;;5070877;28;20550;-69
2022/07/27 04:01:52;;;;;;;3.72;1.70;;;12.60;99.90;;;;;;5072194;28;20244;-69
2022/07/27 04:04:18;;;;;;;3.45;1.88;;;12.60;99.90;;;;;;5070373;28;20100;-69
2022/07/27 04:06:43;;;;;;;3.72;1.63;;;12.70;99.90;;;;;;5072178;28;20481;-69
2022/07/27 04:09:09;;;;;;;2.95;1.70;;;12.70;99.90;;;;;;5071242;28;20466;-71
2022/07/27 04:11:35;;;;;;;2.13;1.80;;;12.80;99.90;;;;;;5058229;28;20040;-71
2022/07/27 04:14:01;;;;;;;4.32;1.50;;;12.80;99.90;;;;;;5052103;28;20045;-69
2022/07/27 04:16:27;;;;;;;3.15;1.52;;;12.90;99.90;;;;;;5060841;28;20059;-69
2022/07/27 04:18:52;;;;;;;2.05;1.55;;;12.90;99.90;;;;;;5071780;28;20052;-69
2022/07/27 04:21:18;;;;;;;3.55;1.65;;;12.90;99.90;;;;;;5052964;28;20053;-71
2022/07/27 04:23:43;;;;;;;3.83;1.80;;;13.00;99.90;;;;;;5071740;28;20049;-71
2022/07/27 04:26:09;;;;;;;2.85;1.75;;;13.00;99.90;;;;;;5069926;28;20036;-69
2022/07/27 04:28:34;;;;;;;3.17;1.55;;;13.00;99.90;;;;;;5054468;28;20487;-69
2022/07/27 04:31:00;;;;;;;2.20;1.58;;;13.00;99.90;;;;;;5055774;28;20083;-69
2022/07/27 04:33:26;;;;;;;3.45;1.73;;;13.10;99.90;;;;;;5065233;28;20052;-69
2022/07/27 04:35:51;;;;;;;2.03;1.60;;;13.10;99.90;;;;;;5068767;28;20040;-69
2022/07/27 04:38:17;;;;;;;3.85;1.65;;;13.10;99.90;;;;;;5056166;28;20125;-70
2022/07/27 04:40:42;;;;;;;2.47;1.40;;;13.20;99.90;;;;;;5071428;28;20040;-70
2022/07/27 04:43:08;;;;;;;6.00;1.80;;;13.20;99.90;;;;;;5071036;28;20039;-70
2022/07/27 04:45:33;;;;;;;2.15;1.40;;;13.30;99.90;;;;;;5066485;28;20479;-69
2022/07/27 04:48:03;;;;;;;2.90;1.52;;;13.40;99.90;;;;;;5066916;28;20399;-70
2022/07/27 04:50:29;;;;;;;4.90;1.70;;;13.50;99.90;;;;;;5069888;28;20056;-70
2022/07/27 04:52:54;;;;;;;3.33;1.63;;;13.50;99.90;;;;;;5070831;28;20362;-70
2022/07/27 04:55:20;;;;;;;4.47;1.48;;;13.70;99.90;;;;;;5070386;28;20033;-70
2022/07/27 04:57:46;;;;;;;4.22;1.67;;;13.80;99.90;;;;;;5063623;28;20036;-69
2022/07/27 05:00:12;;;;;;;4.60;1.85;;;13.80;99.90;;;;;;5049539;28;20601;-69
2022/07/27 05:02:39;;;;;;;5.95;1.90;;;13.90;99.90;;;;;;5069076;28;20120;-69
2022/07/27 05:05:08;;;;;;;4.97;1.60;;;14.10;99.90;;;;;;5069154;28;20130;-70
2022/07/27 05:07:34;;;;;;;6.07;2.08;;;14.20;99.90;;;;;;5070323;28;20052;-69
2022/07/27 05:10:00;;;;;;;6.47;2.33;;;14.30;99.90;;;;;;5061645;28;20577;-70
2022/07/27 05:12:25;;;;;;;6.43;1.98;;;14.60;99.90;;;;;;5038025;28;20037;-70
2022/07/27 05:14:51;;;;;;;3.30;1.52;;;14.70;99.90;;;;;;5068125;28;20052;-70
2022/07/27 05:17:16;;;;;;;5.97;1.80;;;15.00;99.90;;;;;;5066610;28;20493;-70
2022/07/27 05:19:42;;;;;;;4.95;2.05;;;15.20;99.90;;;;;;5061556;28;20146;-71
2022/07/27 05:22:09;;;;;;;5.97;2.20;;;15.30;99.90;;;;;;5062763;22;20056;-67
2022/07/27 05:24:35;;;;;;;7.78;2.08;;;15.50;99.90;;;;;;5068835;28;20466;-68
2022/07/27 05:27:00;;;;;;;5.82;1.67;;;15.50;99.90;;;;;;5049304;28;20033;-69
2022/07/27 05:29:26;;;;;;;6.03;2.15;;;15.50;99.90;;;;;;5082466;28;20045;-68
2022/07/27 05:31:51;;;;;;;3.28;1.92;;;15.60;99.90;;;;;;5084263;28;20041;-68
2022/07/27 05:34:17;;;;;;;3.88;2.40;;;15.50;99.90;;;;;;5053819;28;20102;-69
2022/07/27 05:36:43;;;;;;;6.60;2.38;;;15.50;99.90;;;;;;5087068;28;20068;-68
2022/07/27 05:39:08;;;;;;;5.13;2.13;;;15.40;99.90;;;;;;5054014;28;20037;-68
2022/07/27 05:41:34;;;;;;;5.65;1.92;;;15.40;99.90;;;;;;5050193;28;20053;-68
2022/07/27 05:43:59;;;;;;;5.47;2.00;;;15.40;99.90;;;;;;5053501;28;20051;-69
2022/07/27 05:46:25;;;;;;;6.53;2.10;;;15.40;99.90;;;;;;5050592;28;20116;-69
2022/07/27 05:48:50;;;;;;;4.95;1.92;;;15.40;99.90;;;;;;5058155;28;20059;-68
2022/07/27 05:51:16;;;;;;;6.57;2.33;;;15.30;99.90;;;;;;5048577;28;20037;-69
2022/07/27 05:53:42;;;;;;;5.72;1.92;;;15.10;99.90;;;;;;5051522;28;20041;-68
2022/07/27 05:56:07;;;;;;;9.55;2.13;;;15.00;99.90;;;;;;5051340;28;20073;-69
2022/07/27 05:58:33;;;;;;;5.25;1.58;;;15.10;99.90;;;;;;5054472;28;20075;-69
2022/07/27 06:00:59;;;;;;;4.78;1.45;;;15.20;99.90;;;;;;5053337;28;20048;-69
2022/07/27 06:03:25;;;;;;;7.40;1.85;;;15.20;99.90;;;;;;5054758;28;20552;-68
2022/07/27 06:05:51;;;;;;;5.57;1.60;;;15.30;99.90;;;;;;5045459;28;20407;-68
2022/07/27 06:08:16;;;;;;;4.95;1.50;;;15.40;99.90;;;;;;5045415;28;20120;-68
2022/07/27 06:10:42;;;;;;;3.65;1.25;;;15.40;99.90;;;;;;5050277;28;20402;-68
2022/07/27 06:13:10;;;;;;;2.53;1.25;;;15.40;99.90;;;;;;5046948;28;20120;-68
2022/07/27 06:15:37;;;;;;;2.55;1.27;;;15.40;99.90;;;;;;5049789;28;20099;-69
2022/07/27 06:18:02;;;;;;;4.63;1.27;;;15.30;99.90;;;;;;5053115;28;20040;-69
2022/07/27 06:20:29;;;;;;;9.15;1.63;;;15.30;99.90;;;;;;5049296;28;20462;-69
2022/07/27 06:22:58;;;;;;;3.92;1.02;;;15.30;99.90;;;;;;5046181;28;20065;-69
2022/07/27 06:25:25;;;;;;;4.60;1.50;;;15.20;99.90;;;;;;5050719;28;20565;-67
2022/07/27 06:27:52;;;;;;;2.50;1.20;;;15.30;99.90;;;;;;5049119;28;20072;-68
2022/07/27 06:30:19;;;;;;;5.05;1.60;;;15.30;99.90;;;;;;5036180;28;20098;-67
2022/07/27 06:32:45;;;;;;;5.70;1.90;;;15.30;99.90;;;;;;5054141;28;20040;-67
2022/07/27 06:35:11;;;;;;;4.15;1.48;;;15.30;99.90;;;;;;5086206;28;20048;-67
2022/07/27 06:37:42;;;;;;;4.43;1.42;;;15.40;99.90;;;;;;5054079;28;20040;-67
2022/07/27 06:40:09;;;;;;;5.70;1.73;;;15.40;99.90;;;;;;5054129;28;20178;-67
2022/07/27 06:42:35;;;;;;;5.55;1.42;;;15.60;99.90;;;;;;5053808;28;20375;-67
2022/07/27 06:45:00;;;;;;;5.35;1.30;;;15.70;99.90;;;;;;5085000;28;20045;-67
2022/07/27 06:47:26;;;;;;;3.90;1.42;;;15.90;99.90;;;;;;5053775;28;20041;-67
2022/07/27 06:49:51;;;;;;;4.28;1.40;;;16.00;99.90;;;;;;5052402;28;20052;-67
2022/07/27 06:52:17;;;;;;;5.18;1.20;;;16.20;99.90;;;;;;5085799;28;20052;-67
2022/07/27 06:54:43;;;;;;;3.08;1.02;;;16.50;99.90;;;;;;5053610;28;20041;-67
2022/07/27 06:57:09;;;;;;;4.25;2.03;;;16.70;99.90;;;;;;5085690;28;20045;-67
2022/07/27 06:59:35;;;;;;;6.13;1.50;;;16.70;99.90;;;;;;5053871;28;20382;-67
2022/07/27 07:02:00;;;;;;;2.47;1.15;;;16.80;99.90;;;;;;5053578;28;20041;-67
2022/07/27 07:04:26;;;;;;;3.22;1.52;;;17.20;99.90;;;;;;5053441;28;20537;-67
2022/07/27 07:06:52;;;;;;;1.77;1.05;;;17.50;99.90;;;;;;5053197;28;20528;-67
2022/07/27 07:09:18;;;;;;;4.45;1.30;;;17.90;99.90;;;;;;5053359;28;20052;-67
2022/07/27 07:11:43;;;;;;;7.65;1.63;;;18.30;99.90;;;;;;5053239;28;20037;-67
2022/07/27 07:14:09;;;;;;;5.35;1.35;;;18.80;99.90;;;;;;5053337;28;20049;-67
2022/07/27 07:16:35;;;;;;;5.10;1.27;;;19.80;99.90;;;;;;5053413;28;20040;-67
2022/07/27 07:19:00;;;;;;;3.88;1.02;;;20.50;99.90;;;;;;5085392;28;20428;-65
2022/07/27 07:21:26;;;;;;;4.90;1.40;;;20.90;99.90;;;;;;5053086;28;20045;-65
2022/07/27 07:23:52;;;;;;;3.92;1.30;;;22.00;99.90;;;;;;5052791;28;20045;-65
2022/07/27 07:26:17;;;;;;;4.00;1.10;;;22.10;99.90;;;;;;5052879;28;20072;-65
2022/07/27 07:28:43;;;;;;;4.07;1.05;;;23.10;98.80;;;;;;5085160;28;20660;-65
2022/07/27 07:31:08;;;;;;;3.95;1.00;;;23.30;97.60;;;;;;5085124;28;20045;-65
2022/07/27 07:33:34;;;;;;;4.47;1.52;;;24.90;91.70;;;;;;5085358;28;20378;-65
2022/07/27 07:36:01;;;;;;;3.53;1.00;;;25.00;93.20;;;;;;5085240;28;20485;-65
2022/07/27 07:38:26;;;;;;;3.58;1.15;;;25.90;92.20;;;;;;5053001;28;20071;-65
2022/07/27 07:40:52;;;;;;;6.00;1.20;;;26.90;91.50;;;;;;5052719;28;20044;-65
2022/07/27 07:43:17;;;;;;;4.00;1.00;;;27.50;90.60;;;;;;5052448;28;20425;-65
2022/07/27 07:45:43;;;;;;;3.80;1.00;;;27.90;89.10;;;;;;5052784;28;20372;-65
2022/07/27 07:48:10;;;;;;;3.30;1.10;;;28.10;85.80;;;;;;5052681;28;20044;-65
2022/07/27 07:50:36;;;;;;;4.32;1.20;;;28.10;82.30;;;;;;5052731;28;20052;-65
2022/07/27 07:53:02;;;;;;;5.40;1.33;;;28.60;79.20;;;;;;5084662;28;20674;-65
2022/07/27 07:55:27;;;;;;;2.90;1.05;;;28.60;79.20;;;;;;5084664;28;20044;-65
2022/07/27 07:57:54;;;;;;;5.25;1.17;;;28.80;76.40;;;;;;5052259;28;20080;-65
2022/07/27 08:00:21;;;;;;;5.10;1.13;;;28.90;75.60;;;;;;5052569;28;20037;-65
2022/07/27 08:02:51;;;;;;;4.38;1.17;;;29.00;72.80;;;;;;5051085;28;20037;-66
2022/07/27 08:05:17;;;;;;;4.18;1.20;;;26.30;71.90;;;;;;5052361;28;20045;-65
2022/07/27 08:07:44;;;;;;;4.20;1.08;;;26.80;75.70;;;;;;5052233;28;20437;-65
2022/07/27 08:10:12;;;;;;;3.55;1.10;;;27.20;75.30;;;;;;5052196;28;20049;-65
2022/07/27 08:12:41;;;;;;;3.83;0.90;;;26.60;74.90;;;;;;5051960;28;20666;-65
2022/07/27 08:15:07;;;;;;;5.43;1.38;;;26.00;76.70;;;;;;5084435;28;20466;-65
2022/07/27 08:17:33;;;;;;;4.97;1.30;;;24.50;76.60;;;;;;5052042;28;20040;-65
2022/07/27 08:19:59;;;;;;;3.28;1.20;;;23.90;78.70;;;;;;5052018;28;20467;-65
2022/07/27 08:22:24;;;;;;;3.88;1.30;;;23.10;80.00;;;;;;5051782;28;20064;-64
2022/07/27 08:24:50;;;;;;;2.45;1.05;;;22.50;83.00;;;;;;5051849;28;20045;-64
2022/07/27 08:27:16;;;;;;;4.80;1.13;;;21.50;85.30;;;;;;5051950;28;20029;-65
2022/07/27 08:29:42;;;;;;;3.97;1.38;;;21.10;87.40;;;;;;5052004;28;20037;-65
2022/07/27 08:32:07;;;;;;;3.55;1.00;;;20.20;90.20;;;;;;5034082;28;20049;-64
2022/07/27 08:34:33;;;;;;;4.35;1.02;;;20.00;90.90;;;;;;5050476;28;20062;-64
2022/07/27 08:36:59;;;;;;;4.53;1.30;;;19.50;91.80;;;;;;5084184;28;20128;-65
2022/07/27 08:39:24;;;;;;;6.03;1.45;;;19.00;93.70;;;;;;5051540;28;20051;-64
2022/07/27 08:41:52;;;;;;;4.13;1.48;;;19.00;94.30;;;;;;5051739;28;20052;-64
2022/07/27 08:44:23;;;;;;;3.15;1.25;;;18.90;95.10;;;;;;5051488;28;20044;-64
2022/07/27 08:46:49;;;;;;;5.22;1.60;;;18.80;96.10;;;;;;5051671;28;20110;-64
2022/07/27 08:49:15;;;;;;;4.28;1.23;;;18.50;97.20;;;;;;5051515;28;20048;-64
2022/07/27 08:51:42;;;;;;;8.95;1.40;;;18.50;97.10;;;;;;5083783;28;20661;-65
2022/07/27 08:54:08;;;;;;;4.72;1.38;;;18.20;97.60;;;;;;5083883;28;20116;-65
2022/07/27 08:56:34;;;;;;;2.90;1.20;;;18.20;98.10;;;;;;5083778;28;20056;-64
2022/07/27 08:58:59;;;;;;;2.80;1.15;;;18.40;98.10;;;;;;5051390;28;20402;-64
2022/07/27 09:01:25;;;;;;;2.65;1.00;;;18.40;98.40;;;;;;5051441;28;20101;-64
2022/07/27 09:03:50;;;;;;;5.50;1.35;;;18.70;96.90;;;;;;5051179;28;20044;-64
2022/07/27 09:06:44;;;;;;;5.32;1.00;;;18.80;96.80;;;;;;5049382;28;20461;-64
2022/07/27 09:09:12;;;;;;;5.35;1.02;;;19.00;96.50;;;;;;5051263;28;20485;-64
2022/07/27 09:11:38;;;;;;;3.67;1.30;;;19.10;96.50;;;;;;5083891;28;20036;-64
2022/07/27 09:14:07;;;;;;;4.72;1.20;;;19.10;96.90;;;;;;5051316;28;20033;-65
2022/07/27 09:16:34;;;;;;;3.83;1.23;;;19.20;96.80;;;;;;5051259;28;20682;-64
2022/07/27 09:19:04;;;;;;;4.13;0.95;;;19.40;94.90;;;;;;5083483;28;20049;-65
2022/07/27 09:21:30;;;;;;;2.67;1.35;;;19.60;95.30;;;;;;5051297;28;20044;-65
2022/07/27 09:24:10;;;;;;;4.45;1.25;;;19.50;94.60;;;;;;5050915;28;20457;-65
2022/07/27 09:26:36;;;;;;;2.67;0.98;;;19.60;94.70;;;;;;5051272;28;20033;-65
2022/07/27 09:29:11;;;;;;;5.25;1.20;;;19.70;95.10;;;;;;5051107;28;20052;-65
2022/07/27 09:31:48;;;;;;;6.57;1.00;;;19.90;94.80;;;;;;5051323;28;20044;-65
2022/07/27 09:34:27;;;;;;;2.03;0.70;;;19.80;93.00;;;;;;5050995;28;20041;-65
2022/07/27 09:36:57;;;;;;;4.63;0.82;;;20.30;93.60;;;;;;5051094;28;20052;-65
2022/07/27 09:39:24;;;;;;;4.40;0.90;;;20.50;92.30;;;;;;5051108;28;20051;-65
2022/07/27 09:41:55;;;;;;;2.08;0.80;;;20.80;92.30;;;;;;5050974;28;20045;-65
2022/07/27 09:44:38;;;;;;;1.90;0.90;;;20.50;91.70;;;;;;5051046;28;20120;-65
2022/07/27 09:47:25;;;;;;;5.88;1.00;;;20.60;89.50;;;;;;5051042;28;20148;-65
2022/07/27 09:49:51;;;;;;;3.05;0.80;;;20.50;90.50;;;;;;5049544;28;20802;-64
2022/07/27 09:52:28;;;;;;;3.08;0.80;;;20.90;91.00;;;;;;5050929;28;20120;-64
2022/07/27 09:55:00;;;;;;;2.10;0.95;;;20.70;87.60;;;;;;5050941;28;20068;-65
2022/07/27 09:57:26;;;;;;;3.90;1.00;;;20.90;90.30;;;;;;5030984;28;20120;-65
2022/07/27 10:00:12;;;;;;;1.23;0.70;;;20.80;88.00;;;;;;5030962;28;20124;-65
2022/07/27 10:02:39;;;;;;;2.83;0.93;;;21.30;90.90;;;;;;5030855;28;20041;-65
2022/07/27 10:05:06;;;;;;;2.58;0.90;;;21.50;90.50;;;;;;5029469;28;20049;-65
2022/07/27 10:07:32;;;;;;;6.35;1.30;;;21.70;90.40;;;;;;5029557;28;20514;-65
2022/07/27 10:10:00;;;;;;;2.90;0.95;;;21.80;90.10;;;;;;5030474;28;20037;-67
2022/07/27 10:12:28;;;;;;;3.03;1.00;;;21.60;87.60;;;;;;5029462;28;20103;-67
2022/07/27 10:14:54;;;;;;;3.65;0.85;;;22.00;89.60;;;;;;5029421;28;20555;-67
2022/07/27 10:17:20;;;;;;;6.63;1.38;;;22.30;88.20;;;;;;5030666;28;20130;-67
2022/07/27 10:19:49;;;;;;;3.58;0.98;;;22.20;85.40;;;;;;5033026;28;20379;-67
2022/07/27 10:22:15;;;;;;;3.30;1.10;;;22.10;82.80;;;;;;5033018;28;20178;-65
2022/07/27 10:24:41;;;;;;;3.47;1.20;;;22.00;80.60;;;;;;5032772;28;20057;-65
2022/07/27 10:27:18;;;;;;;3.25;1.02;;;22.00;83.30;;;;;;5033091;28;20045;-65
2022/07/27 10:29:49;;;;;;;2.42;1.00;;;22.20;82.50;;;;;;5032664;28;20045;-65
2022/07/27 10:32:29;;;;;;;5.73;0.93;;;22.40;81.60;;;;;;5032938;28;20575;-65
2022/07/27 10:34:55;;;;;;;2.42;0.82;;;22.10;82.00;;;;;;5034188;28;20063;-65
2022/07/27 10:37:29;;;;;;;3.00;0.95;;;22.10;83.60;;;;;;5033993;28;20471;-65
2022/07/27 10:43:25;;;;;;;2.15;0.80;;;21.80;80.10;;;;;;5032548;28;20057;-65
2022/07/27 10:45:51;;;;;;;2.75;1.10;;;22.10;83.10;;;;;;5015343;28;20053;-65
2022/07/27 10:48:41;;;;;;;3.67;0.90;;;21.90;85.00;;;;;;5033288;28;20034;-65
2022/07/27 10:51:08;;;;;;;2.97;0.95;;;22.00;80.10;;;;;;5033062;28;20037;-65
2022/07/27 10:53:41;;;;;;;3.63;0.90;;;21.50;82.10;;;;;;5032991;28;20130;-65
2022/07/27 10:56:08;;;;;;;5.13;0.95;;;21.90;84.80;;;;;;5033352;28;20064;-65
2022/07/27 10:58:33;;;;;;;3.25;1.00;;;21.90;83.30;;;;;;5032878;28;20386;-65
2022/07/27 11:01:01;;;;;;;2.60;1.35;;;21.90;82.60;;;;;;5031565;28;20052;-65
2022/07/27 11:03:32;;;;;;;1.73;0.60;;;22.00;81.00;;;;;;5032792;28;20037;-65
2022/07/27 11:06:30;;;;;;;5.35;1.23;;;22.20;82.30;;;;;;5031224;28;20045;-65
2022/07/27 11:08:57;;;;;;;3.50;1.02;;;22.30;82.70;;;;;;4988320;28;20111;-65
2022/07/27 11:11:24;;;;;;;1.95;0.85;;;22.40;83.80;;;;;;5032363;28;20052;-67
2022/07/27 11:13:56;;;;;;;3.58;0.93;;;22.30;83.20;;;;;;5031383;28;20045;-65
2022/07/27 11:16:23;;;;;;;2.88;0.88;;;22.60;82.00;;;;;;5032462;28;20041;-65
2022/07/27 11:19:02;;;;;;;3.58;0.70;;;22.80;82.30;;;;;;5014726;28;20136;-65
2022/07/27 11:21:34;;;;;;;3.00;0.73;;;22.70;79.60;;;;;;5032312;28;20044;-65
2022/07/27 11:24:08;;;;;;;1.98;0.65;;;22.50;80.30;;;;;;5031991;28;20053;-65
2022/07/27 11:26:40;;;;;;;3.67;0.88;;;22.50;81.50;;;;;;5030732;28;20057;-65
2022/07/27 11:29:08;;;;;;;2.17;0.75;;;22.30;79.20;;;;;;5032036;28;20490;-65
2022/07/27 11:31:35;;;;;;;1.88;0.63;;;22.20;80.10;;;;;;5030495;28;20491;-65
2022/07/27 11:34:01;;;;;;;3.72;0.88;;;21.60;78.80;;;;;;5030717;28;20775;-65
2022/07/27 11:36:44;;;;;;;2.70;0.80;;;21.60;80.00;;;;;;5031855;28;20049;-65
2022/07/27 11:39:16;;;;;;;2.35;0.63;;;21.70;79.10;;;;;;5032164;28;20037;-65
2022/07/27 11:41:43;;;;;;;2.83;0.70;;;21.60;77.20;;;;;;5031105;28;20045;-65
2022/07/27 11:44:14;;;;;;;1.50;0.50;;;21.20;77.00;;;;;;5032038;28;20037;-65
2022/07/27 11:46:42;;;;;;;2.20;0.82;;;21.60;79.10;;;;;;5031807;28;20029;-65
2022/07/27 11:49:13;;;;;;;1.35;0.50;;;21.60;78.10;;;;;;5030659;28;20128;-65
2022/07/27 11:51:41;;;;;;;1.48;0.70;;;21.60;80.60;;;;;;5030488;28;20566;-65
2022/07/27 11:54:16;;;;;;;2.17;0.93;;;21.70;80.00;;;;;;5032407;28;20487;-65
2022/07/27 11:56:47;;;;;;;2.42;0.70;;;21.90;79.40;;;;;;5032528;28;20037;-64
2022/07/27 11:59:18;;;;;;;3.10;0.63;;;22.10;78.20;;;;;;5031507;28;20075;-65
2022/07/27 12:02:04;;;;;;;2.25;0.80;;;22.40;79.60;;;;;;5032627;28;20148;-65
2022/07/27 12:04:34;;;;;;;2.00;0.80;;;22.40;76.70;;;;;;5032562;28;20375;-65
2022/07/27 12:07:04;;;;;;;3.70;0.80;;;22.30;80.00;;;;;;5032490;28;20049;-65
2022/07/27 12:09:52;;;;;;;1.98;0.68;;;21.90;80.30;;;;;;5031041;28;20084;-65
2022/07/27 12:12:29;;;;;;;2.17;0.80;;;21.20;78.50;;;;;;5017168;28;20049;-65
2022/07/27 12:15:02;;;;;;;3.00;0.70;;;21.50;78.70;;;;;;5032445;28;20107;-65
2022/07/27 12:17:33;;;;;;;2.90;0.80;;;21.30;80.40;;;;;;5032220;28;20674;-65
2022/07/27 12:20:04;;;;;;;3.35;0.77;;;21.60;83.10;;;;;;5032157;28;20041;-64
2022/07/27 12:22:34;;;;;;;2.70;0.77;;;21.80;81.30;;;;;;5032011;28;20057;-65
2022/07/27 12:25:22;;;;;;;1.92;0.60;;;21.90;80.80;;;;;;5030689;28;20045;-65
2022/07/27 12:28:05;;;;;;;6.43;0.88;;;22.10;82.30;;;;;;5031493;28;20051;-65
2022/07/27 12:30:38;;;;;;;2.67;1.00;;;22.10;81.80;;;;;;5031996;28;20045;-65
2022/07/27 12:33:06;;;;;;;2.20;0.70;;;22.40;80.20;;;;;;5030462;28;20048;-65
2022/07/27 12:35:45;;;;;;;1.85;0.70;;;22.20;78.30;;;;;;5032017;28;20091;-64
2022/07/27 12:38:11;;;;;;;2.03;0.70;;;22.60;79.60;;;;;;5031865;28;20092;-65
2022/07/27 12:40:49;;;;;;;2.33;0.50;;;22.20;76.60;;;;;;5031733;28;20053;-65
2022/07/27 12:43:17;;;;;;;3.08;0.90;;;22.50;79.80;;;;;;5029929;28;20073;-64
2022/07/27 12:45:43;;;;;;;1.70;0.60;;;22.40;78.10;;;;;;5031832;28;20041;-65
2022/07/27 12:48:34;;;;;;;2.30;0.98;;;22.40;79.00;;;;;;5030301;28;20140;-64
2022/07/27 12:51:03;;;;;;;6.28;1.00;;;22.40;77.90;;;;;;5028668;28;20643;-65
2022/07/27 12:53:29;;;;;;;4.55;0.98;;;22.40;79.80;;;;;;5031584;28;20103;-65
2022/07/27 12:55:57;;;;;;;3.00;0.73;;;22.40;79.80;;;;;;5031732;28;20041;-65